sensor_id;sensor_type;location;lat;lon;timestamp;temperature;humidity
12841;DHT22;6487;48.626;12.486;2022-10-28T00:01:27;11.10;99.90
12841;DHT22;6487;48.626;12.486;2022-10-28T00:03:57;11.00;99.90
12841;DHT22;6487;48.626;12.486;2022-10-28T00:06:32;11.20;99.90
12841;DHT22;6487;48.626;12.486;2022-10-28T00:09:02;11.20;99.90
12841;DHT22;6487;48.626;12.486;2022-10-28T00:11:37;11.10;99.90
12841;DHT22;6487;48.626;12.486;2022-10-28T00:14:06;11.10;99.90
12841;DHT22;6487;48.626;12.486;2022-10-28T00:16:35;11.10;99.90
12841;DHT22;6487;48.626;12.486;2022-10-28T00:19:05;11.10;99.90
12841;DHT22;6487;48.626;12.486;2022-10-28T00:21:36;11.10;99.90
12841;DHT22;6487;48.626;12.486;2022-10-28T00:24:07;11.00;99.90
12841;DHT22;6487;48.626;12.486;2022-10-28T00:26:38;11.00;99.90
12841;DHT22;6487;48.626;12.486;2022-10-28T00:29:10;11.00;99.90
12841;DHT22;6487;48.626;12.486;2022-10-28T00:31:39;11.00;99.90
12841;DHT22;6487;48.626;12.486;2022-10-28T00:34:11;11.00;99.90
12841;DHT22;6487;48.626;12.486;2022-10-28T00:36:44;11.00;99.90
12841;DHT22;6487;48.626;12.486;2022-10-28T00:39:14;11.00;99.90
12841;DHT22;6487;48.626;12.486;2022-10-28T00:41:44;10.90;99.90
12841;DHT22;6487;48.626;12.486;2022-10-28T00:44:47;10.90;99.90
12841;DHT22;6487;48.626;12.486;2022-10-28T00:47:29;10.90;99.90
12841;DHT22;6487;48.626;12.486;2022-10-28T00:50:28;11.00;99.90
12841;DHT22;6487;48.626;12.486;2022-10-28T00:53:06;10.90;99.90
12841;DHT22;6487;48.626;12.486;2022-10-28T00:55:38;10.90;99.90
12841;DHT22;6487;48.626;12.486;2022-10-28T00:58:07;10.90;99.90
12841;DHT22;6487;48.626;12.486;2022-10-28T01:00:36;10.90;99.90
12841;DHT22;6487;48.626;12.486;2022-10-28T01:03:04;10.80;99.90
12841;DHT22;6487;48.626;12.486;2022-10-28T01:05:35;10.80;99.90
12841;DHT22;6487;48.626;12.486;2022-10-28T01:08:06;10.80;99.90
12841;DHT22;6487;48.626;12.486;2022-10-28T01:10:47;10.80;99.90
12841;DHT22;6487;48.626;12.486;2022-10-28T01:13:39;10.80;99.90
12841;DHT22;6487;48.626;12.486;2022-10-28T01:16:22;10.70;99.90
12841;DHT22;6487;48.626;12.486;2022-10-28T01:19:04;10.70;99.90
12841;DHT22;6487;48.626;12.486;2022-10-28T01:21:54;10.80;99.90
12841;DHT22;6487;48.626;12.486;2022-10-28T01:24:57;10.70;99.90
12841;DHT22;6487;48.626;12.486;2022-10-28T01:28:11;10.70;99.90
12841;DHT22;6487;48.626;12.486;2022-10-28T01:31:08;10.70;99.90
12841;DHT22;6487;48.626;12.486;2022-10-28T01:33:54;10.60;99.90
12841;DHT22;6487;48.626;12.486;2022-10-28T01:36:31;10.50;99.90
12841;DHT22;6487;48.626;12.486;2022-10-28T01:39:08;10.60;99.90
12841;DHT22;6487;48.626;12.486;2022-10-28T01:41:47;10.60;99.90
12841;DHT22;6487;48.626;12.486;2022-10-28T01:44:23;10.60;99.90
12841;DHT22;6487;48.626;12.486;2022-10-28T01:47:01;10.60;99.90
12841;DHT22;6487;48.626;12.486;2022-10-28T01:49:34;10.50;99.90
12841;DHT22;6487;48.626;12.486;2022-10-28T01:52:11;10.50;99.90
12841;DHT22;6487;48.626;12.486;2022-10-28T01:54:43;10.50;99.90
12841;DHT22;6487;48.626;12.486;2022-10-28T01:57:15;10.50;99.90
12841;DHT22;6487;48.626;12.486;2022-10-28T01:59:46;10.50;99.90
12841;DHT22;6487;48.626;12.486;2022-10-28T02:02:16;10.50;99.90
12841;DHT22;6487;48.626;12.486;2022-10-28T02:04:45;10.50;99.90
12841;DHT22;6487;48.626;12.486;2022-10-28T02:07:14;10.50;99.90
12841;DHT22;6487;48.626;12.486;2022-10-28T02:09:55;10.50;99.90
12841;DHT22;6487;48.626;12.486;2022-10-28T02:12:32;10.50;99.90
12841;DHT22;6487;48.626;12.486;2022-10-28T02:18:18;10.50;99.90
12841;DHT22;6487;48.626;12.486;2022-10-28T02:20:52;10.50;99.90
12841;DHT22;6487;48.626;12.486;2022-10-28T02:23:34;10.40;99.90
12841;DHT22;6487;48.626;12.486;2022-10-28T02:26:11;10.30;99.90
12841;DHT22;6487;48.626;12.486;2022-10-28T02:28:48;10.30;99.90
12841;DHT22;6487;48.626;12.486;2022-10-28T02:31:24;10.30;99.90
12841;DHT22;6487;48.626;12.486;2022-10-28T02:33:58;10.30;99.90
12841;DHT22;6487;48.626;12.486;2022-10-28T02:36:31;10.20;99.90
12841;DHT22;6487;48.626;12.486;2022-10-28T02:39:03;10.20;99.90
12841;DHT22;6487;48.626;12.486;2022-10-28T02:41:37;10.20;99.90
12841;DHT22;6487;48.626;12.486;2022-10-28T02:44:11;10.20;99.90
12841;DHT22;6487;48.626;12.486;2022-10-28T02:46:44;10.20;99.90
12841;DHT22;6487;48.626;12.486;2022-10-28T02:49:15;10.10;99.90
12841;DHT22;6487;48.626;12.486;2022-10-28T02:51:47;10.10;99.90
12841;DHT22;6487;48.626;12.486;2022-10-28T02:54:20;10.10;99.90
12841;DHT22;6487;48.626;12.486;2022-10-28T02:56:54;10.10;99.90
12841;DHT22;6487;48.626;12.486;2022-10-28T02:59:27;10.10;99.90
12841;DHT22;6487;48.626;12.486;2022-10-28T03:01:56;10.10;99.90
12841;DHT22;6487;48.626;12.486;2022-10-28T03:04:26;10.10;99.90
12841;DHT22;6487;48.626;12.486;2022-10-28T03:06:54;10.00;99.90
12841;DHT22;6487;48.626;12.486;2022-10-28T03:09:22;10.00;99.90
12841;DHT22;6487;48.626;12.486;2022-10-28T03:11:50;10.00;99.90
12841;DHT22;6487;48.626;12.486;2022-10-28T03:14:19;10.00;99.90
12841;DHT22;6487;48.626;12.486;2022-10-28T03:16:47;10.00;99.90
12841;DHT22;6487;48.626;12.486;2022-10-28T03:19:15;10.00;99.90
12841;DHT22;6487;48.626;12.486;2022-10-28T03:21:45;10.00;99.90
12841;DHT22;6487;48.626;12.486;2022-10-28T03:24:13;10.00;99.90
12841;DHT22;6487;48.626;12.486;2022-10-28T03:26:41;10.00;99.90
12841;DHT22;6487;48.626;12.486;2022-10-28T03:29:09;9.90;99.90
12841;DHT22;6487;48.626;12.486;2022-10-28T03:31:38;9.90;99.90
12841;DHT22;6487;48.626;12.486;2022-10-28T03:34:06;9.90;99.90
12841;DHT22;6487;48.626;12.486;2022-10-28T03:36:34;9.90;99.90
12841;DHT22;6487;48.626;12.486;2022-10-28T03:39:04;9.80;99.90
12841;DHT22;6487;48.626;12.486;2022-10-28T03:41:32;9.80;99.90
12841;DHT22;6487;48.626;12.486;2022-10-28T03:44:00;9.80;99.90
12841;DHT22;6487;48.626;12.486;2022-10-28T03:46:29;9.80;99.90
12841;DHT22;6487;48.626;12.486;2022-10-28T03:49:02;9.70;99.90
12841;DHT22;6487;48.626;12.486;2022-10-28T03:51:30;9.70;99.90
12841;DHT22;6487;48.626;12.486;2022-10-28T03:53:58;9.70;99.90
12841;DHT22;6487;48.626;12.486;2022-10-28T03:56:28;9.70;99.90
12841;DHT22;6487;48.626;12.486;2022-10-28T03:58:56;9.70;99.90
12841;DHT22;6487;48.626;12.486;2022-10-28T04:01:25;9.70;99.90
12841;DHT22;6487;48.626;12.486;2022-10-28T04:03:53;9.70;99.90
12841;DHT22;6487;48.626;12.486;2022-10-28T04:06:21;9.70;99.90
12841;DHT22;6487;48.626;12.486;2022-10-28T04:08:50;9.80;99.90
12841;DHT22;6487;48.626;12.486;2022-10-28T04:11:18;9.70;99.90
12841;DHT22;6487;48.626;12.486;2022-10-28T04:13:48;9.70;99.90
12841;DHT22;6487;48.626;12.486;2022-10-28T04:16:16;9.70;99.90
12841;DHT22;6487;48.626;12.486;2022-10-28T04:18:44;9.70;99.90
12841;DHT22;6487;48.626;12.486;2022-10-28T04:21:12;9.70;99.90
12841;DHT22;6487;48.626;12.486;2022-10-28T04:23:41;9.70;99.90
12841;DHT22;6487;48.626;12.486;2022-10-28T04:26:09;9.60;99.90
12841;DHT22;6487;48.626;12.486;2022-10-28T04:28:37;9.60;99.90
12841;DHT22;6487;48.626;12.486;2022-10-28T04:31:07;9.60;99.90
12841;DHT22;6487;48.626;12.486;2022-10-28T04:33:35;9.60;99.90
12841;DHT22;6487;48.626;12.486;2022-10-28T04:36:04;9.60;99.90
12841;DHT22;6487;48.626;12.486;2022-10-28T04:38:32;9.60;99.90
12841;DHT22;6487;48.626;12.486;2022-10-28T04:41:01;9.60;99.90
12841;DHT22;6487;48.626;12.486;2022-10-28T04:43:29;9.60;99.90
12841;DHT22;6487;48.626;12.486;2022-10-28T04:45:57;9.70;99.90
12841;DHT22;6487;48.626;12.486;2022-10-28T04:48:33;9.60;99.90
12841;DHT22;6487;48.626;12.486;2022-10-28T04:51:02;9.50;99.90
12841;DHT22;6487;48.626;12.486;2022-10-28T04:53:30;9.50;99.90
12841;DHT22;6487;48.626;12.486;2022-10-28T04:55:59;9.50;99.90
12841;DHT22;6487;48.626;12.486;2022-10-28T04:58:27;9.50;99.90
12841;DHT22;6487;48.626;12.486;2022-10-28T05:00:56;9.60;99.90
12841;DHT22;6487;48.626;12.486;2022-10-28T05:03:24;9.60;99.90
12841;DHT22;6487;48.626;12.486;2022-10-28T05:05:54;9.50;99.90
12841;DHT22;6487;48.626;12.486;2022-10-28T05:08:22;9.60;99.90
12841;DHT22;6487;48.626;12.486;2022-10-28T05:10:50;9.50;99.90
12841;DHT22;6487;48.626;12.486;2022-10-28T05:13:19;9.50;99.90
12841;DHT22;6487;48.626;12.486;2022-10-28T05:15:47;9.50;99.90
12841;DHT22;6487;48.626;12.486;2022-10-28T05:18:17;9.50;99.90
12841;DHT22;6487;48.626;12.486;2022-10-28T05:20:45;9.30;99.90
12841;DHT22;6487;48.626;12.486;2022-10-28T05:23:19;9.40;99.90
12841;DHT22;6487;48.626;12.486;2022-10-28T05:25:52;9.30;99.90
12841;DHT22;6487;48.626;12.486;2022-10-28T05:28:21;9.40;99.90
12841;DHT22;6487;48.626;12.486;2022-10-28T05:30:49;9.40;99.90
12841;DHT22;6487;48.626;12.486;2022-10-28T05:33:17;9.50;99.90
12841;DHT22;6487;48.626;12.486;2022-10-28T05:35:45;9.50;99.90
12841;DHT22;6487;48.626;12.486;2022-10-28T05:38:14;9.50;99.90
12841;DHT22;6487;48.626;12.486;2022-10-28T05:40:43;9.50;99.90
12841;DHT22;6487;48.626;12.486;2022-10-28T05:43:12;9.50;99.90
12841;DHT22;6487;48.626;12.486;2022-10-28T05:45:40;9.50;99.90
12841;DHT22;6487;48.626;12.486;2022-10-28T05:48:08;9.50;99.90
12841;DHT22;6487;48.626;12.486;2022-10-28T05:50:37;9.50;99.90
12841;DHT22;6487;48.626;12.486;2022-10-28T05:53:05;9.50;99.90
12841;DHT22;6487;48.626;12.486;2022-10-28T05:55:33;9.50;99.90
12841;DHT22;6487;48.626;12.486;2022-10-28T05:58:03;9.50;99.90
12841;DHT22;6487;48.626;12.486;2022-10-28T06:00:31;9.50;99.90
12841;DHT22;6487;48.626;12.486;2022-10-28T06:03:03;9.50;99.90
12841;DHT22;6487;48.626;12.486;2022-10-28T06:05:35;9.50;99.90
12841;DHT22;6487;48.626;12.486;2022-10-28T06:08:04;9.50;99.90
12841;DHT22;6487;48.626;12.486;2022-10-28T06:10:32;9.50;99.90
12841;DHT22;6487;48.626;12.486;2022-10-28T06:13:03;9.60;99.90
12841;DHT22;6487;48.626;12.486;2022-10-28T06:15:31;9.60;99.90
12841;DHT22;6487;48.626;12.486;2022-10-28T06:17:59;9.60;99.90
12841;DHT22;6487;48.626;12.486;2022-10-28T06:20:28;9.50;99.90
12841;DHT22;6487;48.626;12.486;2022-10-28T06:22:56;9.60;99.90
12841;DHT22;6487;48.626;12.486;2022-10-28T06:25:25;9.60;99.90
12841;DHT22;6487;48.626;12.486;2022-10-28T06:27:54;9.60;99.90
12841;DHT22;6487;48.626;12.486;2022-10-28T06:30:27;9.60;99.90
12841;DHT22;6487;48.626;12.486;2022-10-28T06:32:56;9.70;99.90
12841;DHT22;6487;48.626;12.486;2022-10-28T06:35:24;9.60;99.90
12841;DHT22;6487;48.626;12.486;2022-10-28T06:37:53;9.70;99.90
12841;DHT22;6487;48.626;12.486;2022-10-28T06:40:23;9.80;99.90
12841;DHT22;6487;48.626;12.486;2022-10-28T06:42:56;9.90;99.90
12841;DHT22;6487;48.626;12.486;2022-10-28T06:45:27;9.90;99.90
12841;DHT22;6487;48.626;12.486;2022-10-28T06:47:56;10.00;99.90
12841;DHT22;6487;48.626;12.486;2022-10-28T06:50:25;10.00;99.90
12841;DHT22;6487;48.626;12.486;2022-10-28T06:52:54;10.10;99.90
12841;DHT22;6487;48.626;12.486;2022-10-28T06:55:23;10.30;99.90
12841;DHT22;6487;48.626;12.486;2022-10-28T06:57:52;10.30;99.90
12841;DHT22;6487;48.626;12.486;2022-10-28T07:00:21;10.30;99.90
12841;DHT22;6487;48.626;12.486;2022-10-28T07:02:52;10.30;99.90
12841;DHT22;6487;48.626;12.486;2022-10-28T07:05:22;10.40;99.90
12841;DHT22;6487;48.626;12.486;2022-10-28T07:07:52;10.50;99.90
12841;DHT22;6487;48.626;12.486;2022-10-28T07:10:21;10.70;99.90
12841;DHT22;6487;48.626;12.486;2022-10-28T07:12:51;10.80;99.90
12841;DHT22;6487;48.626;12.486;2022-10-28T07:15:20;10.90;99.90
12841;DHT22;6487;48.626;12.486;2022-10-28T07:17:52;11.00;99.90
12841;DHT22;6487;48.626;12.486;2022-10-28T07:20:22;11.20;99.90
12841;DHT22;6487;48.626;12.486;2022-10-28T07:22:55;11.30;99.90
12841;DHT22;6487;48.626;12.486;2022-10-28T07:25:23;11.40;99.90
12841;DHT22;6487;48.626;12.486;2022-10-28T07:27:52;11.50;99.90
12841;DHT22;6487;48.626;12.486;2022-10-28T07:30:21;11.60;99.90
12841;DHT22;6487;48.626;12.486;2022-10-28T07:32:49;11.70;99.90
12841;DHT22;6487;48.626;12.486;2022-10-28T07:35:20;11.80;99.90
12841;DHT22;6487;48.626;12.486;2022-10-28T07:37:48;11.90;99.90
12841;DHT22;6487;48.626;12.486;2022-10-28T07:40:16;12.10;99.90
12841;DHT22;6487;48.626;12.486;2022-10-28T07:42:45;12.30;99.90
12841;DHT22;6487;48.626;12.486;2022-10-28T07:45:14;12.40;99.90
12841;DHT22;6487;48.626;12.486;2022-10-28T07:47:43;12.60;99.90
12841;DHT22;6487;48.626;12.486;2022-10-28T07:50:12;12.80;99.90
12841;DHT22;6487;48.626;12.486;2022-10-28T07:52:41;12.90;99.90
12841;DHT22;6487;48.626;12.486;2022-10-28T07:55:10;13.10;99.90
12841;DHT22;6487;48.626;12.486;2022-10-28T07:57:39;13.20;99.90
12841;DHT22;6487;48.626;12.486;2022-10-28T08:00:07;13.30;99.90
12841;DHT22;6487;48.626;12.486;2022-10-28T08:02:37;13.40;99.90
12841;DHT22;6487;48.626;12.486;2022-10-28T08:05:06;13.70;99.90
12841;DHT22;6487;48.626;12.486;2022-10-28T08:07:36;13.80;99.90
12841;DHT22;6487;48.626;12.486;2022-10-28T08:10:05;14.10;99.90
12841;DHT22;6487;48.626;12.486;2022-10-28T08:12:34;14.20;99.90
12841;DHT22;6487;48.626;12.486;2022-10-28T08:15:03;14.30;99.90
12841;DHT22;6487;48.626;12.486;2022-10-28T08:17:32;14.50;99.90
12841;DHT22;6487;48.626;12.486;2022-10-28T08:20:00;14.70;99.90
12841;DHT22;6487;48.626;12.486;2022-10-28T08:22:28;14.90;99.90
12841;DHT22;6487;48.626;12.486;2022-10-28T08:24:58;15.10;99.90
12841;DHT22;6487;48.626;12.486;2022-10-28T08:27:26;15.40;99.90
12841;DHT22;6487;48.626;12.486;2022-10-28T08:29:55;15.50;99.90
12841;DHT22;6487;48.626;12.486;2022-10-28T08:32:23;15.70;99.90
12841;DHT22;6487;48.626;12.486;2022-10-28T08:34:51;15.80;99.90
12841;DHT22;6487;48.626;12.486;2022-10-28T08:37:19;15.90;99.90
12841;DHT22;6487;48.626;12.486;2022-10-28T08:39:48;15.90;99.90
12841;DHT22;6487;48.626;12.486;2022-10-28T08:42:28;16.00;99.90
12841;DHT22;6487;48.626;12.486;2022-10-28T08:45:22;16.10;99.90
12841;DHT22;6487;48.626;12.486;2022-10-28T08:48:07;16.10;99.90
12841;DHT22;6487;48.626;12.486;2022-10-28T08:50:45;16.30;99.90
12841;DHT22;6487;48.626;12.486;2022-10-28T08:53:18;16.30;99.90
12841;DHT22;6487;48.626;12.486;2022-10-28T08:55:49;16.20;99.90
12841;DHT22;6487;48.626;12.486;2022-10-28T08:58:23;16.30;99.90
12841;DHT22;6487;48.626;12.486;2022-10-28T09:00:54;16.40;99.90
12841;DHT22;6487;48.626;12.486;2022-10-28T09:03:27;16.50;99.90
12841;DHT22;6487;48.626;12.486;2022-10-28T09:06:03;16.70;99.90
12841;DHT22;6487;48.626;12.486;2022-10-28T09:08:35;16.90;99.90
12841;DHT22;6487;48.626;12.486;2022-10-28T09:14:42;17.10;99.90
12841;DHT22;6487;48.626;12.486;2022-10-28T09:17:16;17.40;99.90
12841;DHT22;6487;48.626;12.486;2022-10-28T09:19:48;17.70;99.90
12841;DHT22;6487;48.626;12.486;2022-10-28T09:22:23;18.00;99.90
12841;DHT22;6487;48.626;12.486;2022-10-28T09:24:54;18.10;99.90
12841;DHT22;6487;48.626;12.486;2022-10-28T09:27:39;18.30;99.90
12841;DHT22;6487;48.626;12.486;2022-10-28T09:30:25;18.50;99.90
12841;DHT22;6487;48.626;12.486;2022-10-28T09:33:06;18.80;99.90
12841;DHT22;6487;48.626;12.486;2022-10-28T09:35:41;18.90;99.90
12841;DHT22;6487;48.626;12.486;2022-10-28T09:38:16;19.00;99.90
12841;DHT22;6487;48.626;12.486;2022-10-28T09:40:51;19.10;99.90
12841;DHT22;6487;48.626;12.486;2022-10-28T09:43:25;19.20;99.90
12841;DHT22;6487;48.626;12.486;2022-10-28T09:46:02;19.50;99.90
12841;DHT22;6487;48.626;12.486;2022-10-28T09:48:36;19.70;99.90
12841;DHT22;6487;48.626;12.486;2022-10-28T09:51:05;20.00;99.90
12841;DHT22;6487;48.626;12.486;2022-10-28T09:53:41;20.20;99.90
12841;DHT22;6487;48.626;12.486;2022-10-28T09:56:13;20.20;99.90
12841;DHT22;6487;48.626;12.486;2022-10-28T09:58:45;20.40;99.90
12841;DHT22;6487;48.626;12.486;2022-10-28T10:01:16;20.40;99.90
12841;DHT22;6487;48.626;12.486;2022-10-28T10:03:47;20.50;99.90
12841;DHT22;6487;48.626;12.486;2022-10-28T10:06:19;20.70;99.90
12841;DHT22;6487;48.626;12.486;2022-10-28T10:08:51;20.70;99.90
12841;DHT22;6487;48.626;12.486;2022-10-28T10:11:26;20.50;99.90
12841;DHT22;6487;48.626;12.486;2022-10-28T10:14:04;20.60;99.90
12841;DHT22;6487;48.626;12.486;2022-10-28T10:16:40;20.70;99.90
12841;DHT22;6487;48.626;12.486;2022-10-28T10:19:10;20.70;99.90
12841;DHT22;6487;48.626;12.486;2022-10-28T10:21:41;20.80;99.90
12841;DHT22;6487;48.626;12.486;2022-10-28T10:24:24;20.70;99.90
12841;DHT22;6487;48.626;12.486;2022-10-28T10:26:58;20.70;99.90
12841;DHT22;6487;48.626;12.486;2022-10-28T10:29:28;20.60;99.90
12841;DHT22;6487;48.626;12.486;2022-10-28T10:32:13;20.60;99.90
12841;DHT22;6487;48.626;12.486;2022-10-28T10:34:51;20.60;99.90
12841;DHT22;6487;48.626;12.486;2022-10-28T10:37:23;20.60;99.90
12841;DHT22;6487;48.626;12.486;2022-10-28T10:40:00;20.60;99.90
12841;DHT22;6487;48.626;12.486;2022-10-28T10:42:31;20.50;99.90
12841;DHT22;6487;48.626;12.486;2022-10-28T10:45:23;20.40;99.90
12841;DHT22;6487;48.626;12.486;2022-10-28T10:48:12;20.40;99.90
12841;DHT22;6487;48.626;12.486;2022-10-28T10:50:41;20.40;99.90
12841;DHT22;6487;48.626;12.486;2022-10-28T10:53:23;20.30;99.90
12841;DHT22;6487;48.626;12.486;2022-10-28T10:55:57;20.30;99.90
12841;DHT22;6487;48.626;12.486;2022-10-28T10:58:29;20.30;99.90
12841;DHT22;6487;48.626;12.486;2022-10-28T11:01:01;20.20;99.90
12841;DHT22;6487;48.626;12.486;2022-10-28T11:03:34;20.10;99.90
12841;DHT22;6487;48.626;12.486;2022-10-28T11:06:06;20.20;99.90
12841;DHT22;6487;48.626;12.486;2022-10-28T11:08:54;20.10;99.90
12841;DHT22;6487;48.626;12.486;2022-10-28T11:11:31;20.10;99.90
12841;DHT22;6487;48.626;12.486;2022-10-28T11:14:05;20.10;99.90
12841;DHT22;6487;48.626;12.486;2022-10-28T11:16:48;20.10;99.90
12841;DHT22;6487;48.626;12.486;2022-10-28T11:19:21;20.10;99.90
12841;DHT22;6487;48.626;12.486;2022-10-28T11:22:03;20.00;99.90
12841;DHT22;6487;48.626;12.486;2022-10-28T11:24:49;20.00;99.90
12841;DHT22;6487;48.626;12.486;2022-10-28T11:27:50;20.00;99.90
12841;DHT22;6487;48.626;12.486;2022-10-28T11:30:37;20.10;99.90
12841;DHT22;6487;48.626;12.486;2022-10-28T11:33:13;20.20;99.90
12841;DHT22;6487;48.626;12.486;2022-10-28T11:36:10;20.30;99.90
12841;DHT22;6487;48.626;12.486;2022-10-28T11:39:10;20.40;99.90
12841;DHT22;6487;48.626;12.486;2022-10-28T11:41:58;20.40;99.90
12841;DHT22;6487;48.626;12.486;2022-10-28T11:44:42;20.60;99.90
12841;DHT22;6487;48.626;12.486;2022-10-28T11:47:35;20.60;99.90
12841;DHT22;6487;48.626;12.486;2022-10-28T11:50:30;20.60;99.90
12841;DHT22;6487;48.626;12.486;2022-10-28T11:53:20;20.60;99.90
12841;DHT22;6487;48.626;12.486;2022-10-28T11:56:07;20.60;99.90
12841;DHT22;6487;48.626;12.486;2022-10-28T11:58:44;20.70;99.90
12841;DHT22;6487;48.626;12.486;2022-10-28T12:01:30;20.60;99.90
12841;DHT22;6487;48.626;12.486;2022-10-28T12:04:24;20.70;99.90
12841;DHT22;6487;48.626;12.486;2022-10-28T12:07:09;20.80;99.90
12841;DHT22;6487;48.626;12.486;2022-10-28T12:10:10;20.90;99.90
12841;DHT22;6487;48.626;12.486;2022-10-28T12:12:52;21.00;99.90
12841;DHT22;6487;48.626;12.486;2022-10-28T12:15:40;21.20;99.90
12841;DHT22;6487;48.626;12.486;2022-10-28T12:18:19;21.20;99.60
12841;DHT22;6487;48.626;12.486;2022-10-28T12:20:56;21.20;99.00
12841;DHT22;6487;48.626;12.486;2022-10-28T12:23:27;21.40;99.10
12841;DHT22;6487;48.626;12.486;2022-10-28T12:25:58;21.50;98.90
12841;DHT22;6487;48.626;12.486;2022-10-28T12:28:31;21.60;99.10
12841;DHT22;6487;48.626;12.486;2022-10-28T12:31:01;21.70;99.50
12841;DHT22;6487;48.626;12.486;2022-10-28T12:33:36;21.90;99.40
12841;DHT22;6487;48.626;12.486;2022-10-28T12:36:20;22.00;99.60
12841;DHT22;6487;48.626;12.486;2022-10-28T12:38:57;22.10;98.70
12841;DHT22;6487;48.626;12.486;2022-10-28T12:41:45;22.20;98.90
12841;DHT22;6487;48.626;12.486;2022-10-28T12:44:19;22.40;99.00
12841;DHT22;6487;48.626;12.486;2022-10-28T12:46:56;22.50;98.30
12841;DHT22;6487;48.626;12.486;2022-10-28T12:49:36;22.60;97.90
12841;DHT22;6487;48.626;12.486;2022-10-28T12:52:18;22.70;99.00
12841;DHT22;6487;48.626;12.486;2022-10-28T12:54:57;22.70;97.50
12841;DHT22;6487;48.626;12.486;2022-10-28T12:57:32;22.70;98.10
12841;DHT22;6487;48.626;12.486;2022-10-28T13:00:04;22.60;97.60
12841;DHT22;6487;48.626;12.486;2022-10-28T13:02:39;22.40;98.00
12841;DHT22;6487;48.626;12.486;2022-10-28T13:05:18;22.30;97.90
12841;DHT22;6487;48.626;12.486;2022-10-28T13:08:21;22.30;98.30
12841;DHT22;6487;48.626;12.486;2022-10-28T13:15:20;22.20;97.90
12841;DHT22;6487;48.626;12.486;2022-10-28T13:18:25;22.10;99.70
12841;DHT22;6487;48.626;12.486;2022-10-28T13:21:18;22.00;99.70
12841;DHT22;6487;48.626;12.486;2022-10-28T13:23:55;21.80;99.70
12841;DHT22;6487;48.626;12.486;2022-10-28T13:26:27;21.70;99.90
12841;DHT22;6487;48.626;12.486;2022-10-28T13:28:59;21.70;99.90
12841;DHT22;6487;48.626;12.486;2022-10-28T13:31:37;21.70;99.90
12841;DHT22;6487;48.626;12.486;2022-10-28T13:34:08;21.70;99.90
12841;DHT22;6487;48.626;12.486;2022-10-28T13:36:39;21.60;99.90
12841;DHT22;6487;48.626;12.486;2022-10-28T13:39:22;21.60;99.80
12841;DHT22;6487;48.626;12.486;2022-10-28T13:42:30;21.50;99.90
12841;DHT22;6487;48.626;12.486;2022-10-28T13:45:46;21.50;99.90
12841;DHT22;6487;48.626;12.486;2022-10-28T13:48:44;21.40;99.90
12841;DHT22;6487;48.626;12.486;2022-10-28T13:51:35;21.30;99.90
12841;DHT22;6487;48.626;12.486;2022-10-28T13:54:26;21.20;99.90
12841;DHT22;6487;48.626;12.486;2022-10-28T13:57:01;21.20;99.90
12841;DHT22;6487;48.626;12.486;2022-10-28T13:59:49;21.10;99.90
12841;DHT22;6487;48.626;12.486;2022-10-28T14:02:27;21.00;99.90
12841;DHT22;6487;48.626;12.486;2022-10-28T14:05:05;21.00;99.90
12841;DHT22;6487;48.626;12.486;2022-10-28T14:07:37;20.90;99.90
12841;DHT22;6487;48.626;12.486;2022-10-28T14:10:14;20.80;99.90
12841;DHT22;6487;48.626;12.486;2022-10-28T14:12:51;20.80;99.90
12841;DHT22;6487;48.626;12.486;2022-10-28T14:15:24;20.80;99.90
12841;DHT22;6487;48.626;12.486;2022-10-28T14:17:57;20.80;99.90
12841;DHT22;6487;48.626;12.486;2022-10-28T14:20:57;20.70;99.90
12841;DHT22;6487;48.626;12.486;2022-10-28T14:30:20;20.50;99.90
12841;DHT22;6487;48.626;12.486;2022-10-28T14:32:57;20.40;99.90
12841;DHT22;6487;48.626;12.486;2022-10-28T14:35:36;20.40;99.90
12841;DHT22;6487;48.626;12.486;2022-10-28T14:41:43;20.40;99.90
12841;DHT22;6487;48.626;12.486;2022-10-28T14:44:36;20.30;99.90
12841;DHT22;6487;48.626;12.486;2022-10-28T14:47:33;20.30;99.90
12841;DHT22;6487;48.626;12.486;2022-10-28T14:50:16;20.20;99.90
12841;DHT22;6487;48.626;12.486;2022-10-28T14:52:47;20.10;99.90
12841;DHT22;6487;48.626;12.486;2022-10-28T14:55:21;20.10;99.90
12841;DHT22;6487;48.626;12.486;2022-10-28T14:57:53;20.10;99.90
12841;DHT22;6487;48.626;12.486;2022-10-28T15:00:23;20.00;99.90
12841;DHT22;6487;48.626;12.486;2022-10-28T15:02:54;20.00;99.90
12841;DHT22;6487;48.626;12.486;2022-10-28T15:05:29;19.90;99.90
12841;DHT22;6487;48.626;12.486;2022-10-28T15:08:01;19.90;99.90
12841;DHT22;6487;48.626;12.486;2022-10-28T15:10:32;19.80;99.90
12841;DHT22;6487;48.626;12.486;2022-10-28T15:13:02;19.70;99.90
12841;DHT22;6487;48.626;12.486;2022-10-28T15:15:32;19.60;99.90
12841;DHT22;6487;48.626;12.486;2022-10-28T15:18:01;19.60;99.90
12841;DHT22;6487;48.626;12.486;2022-10-28T15:20:44;19.50;99.90
12841;DHT22;6487;48.626;12.486;2022-10-28T15:23:16;19.40;99.90
12841;DHT22;6487;48.626;12.486;2022-10-28T15:25:45;19.40;99.90
12841;DHT22;6487;48.626;12.486;2022-10-28T15:28:33;19.40;99.90
12841;DHT22;6487;48.626;12.486;2022-10-28T15:31:01;19.40;99.90
12841;DHT22;6487;48.626;12.486;2022-10-28T15:33:30;19.30;99.90
12841;DHT22;6487;48.626;12.486;2022-10-28T15:36:08;19.30;99.90
12841;DHT22;6487;48.626;12.486;2022-10-28T15:38:44;19.20;99.90
12841;DHT22;6487;48.626;12.486;2022-10-28T15:41:38;19.10;99.90
12841;DHT22;6487;48.626;12.486;2022-10-28T15:44:24;19.00;99.90
12841;DHT22;6487;48.626;12.486;2022-10-28T15:46:54;19.00;99.90
12841;DHT22;6487;48.626;12.486;2022-10-28T15:49:42;18.90;99.90
12841;DHT22;6487;48.626;12.486;2022-10-28T15:52:36;18.80;99.90
12841;DHT22;6487;48.626;12.486;2022-10-28T15:55:28;18.80;99.90
12841;DHT22;6487;48.626;12.486;2022-10-28T15:58:31;18.70;99.90
12841;DHT22;6487;48.626;12.486;2022-10-28T16:01:07;18.70;99.90
12841;DHT22;6487;48.626;12.486;2022-10-28T16:03:42;18.70;99.90
12841;DHT22;6487;48.626;12.486;2022-10-28T16:06:24;18.60;99.90
12841;DHT22;6487;48.626;12.486;2022-10-28T16:09:15;18.60;99.90
12841;DHT22;6487;48.626;12.486;2022-10-28T16:11:46;18.50;99.90
12841;DHT22;6487;48.626;12.486;2022-10-28T16:14:29;18.40;99.90
12841;DHT22;6487;48.626;12.486;2022-10-28T16:17:13;18.40;99.90
12841;DHT22;6487;48.626;12.486;2022-10-28T16:19:48;18.40;99.90
12841;DHT22;6487;48.626;12.486;2022-10-28T16:22:18;18.30;99.90
12841;DHT22;6487;48.626;12.486;2022-10-28T16:24:47;18.30;99.90
12841;DHT22;6487;48.626;12.486;2022-10-28T16:27:17;18.20;99.90
12841;DHT22;6487;48.626;12.486;2022-10-28T16:29:47;18.20;99.90
12841;DHT22;6487;48.626;12.486;2022-10-28T16:32:23;18.20;99.90
12841;DHT22;6487;48.626;12.486;2022-10-28T16:34:52;18.10;99.90
12841;DHT22;6487;48.626;12.486;2022-10-28T16:37:22;18.10;99.90
12841;DHT22;6487;48.626;12.486;2022-10-28T16:39:51;18.00;99.90
12841;DHT22;6487;48.626;12.486;2022-10-28T16:42:21;18.00;99.90
12841;DHT22;6487;48.626;12.486;2022-10-28T16:44:49;17.90;99.90